createdAt,value
2023-05-13T00:00:58.117Z,82415.39
2023-05-13T00:03:24.738Z,82411.84
2023-05-13T00:05:51.440Z,82412.15
2023-05-13T00:08:19.782Z,82412.69
2023-05-13T00:10:46.335Z,82411.78
2023-05-13T00:13:12.911Z,82411.78
2023-05-13T00:15:40.583Z,82415.23
2023-05-13T00:18:07.159Z,82412.93
2023-05-13T00:20:33.634Z,82414.27
2023-05-13T00:23:00.372Z,82408.79
2023-05-13T00:25:26.867Z,82408.12
2023-05-13T00:27:53.431Z,82408.46
2023-05-13T00:30:21.358Z,82407.03
2023-05-13T00:32:48.256Z,82404.11
2023-05-13T00:35:14.924Z,82410.45
2023-05-13T00:37:41.404Z,82411.31
2023-05-13T00:40:17.114Z,82407.64
2023-05-13T00:42:43.621Z,82410.08
2023-05-13T00:45:10.498Z,82404.86
2023-05-13T00:47:37.034Z,82404.37
2023-05-13T00:50:03.904Z,82408.68
2023-05-13T00:52:30.326Z,82406.20
2023-05-13T00:54:56.806Z,82405.91
2023-05-13T00:57:23.299Z,82403.91
2023-05-13T00:59:49.818Z,82409.02
2023-05-13T01:02:48.540Z,82405.16
2023-05-13T01:05:30.317Z,82398.14
2023-05-13T01:08:20.460Z,82407.91
2023-05-13T01:10:50.406Z,82407.80
2023-05-13T01:13:21.209Z,82411.00
2023-05-13T01:16:00.712Z,82411.50
2023-05-13T01:18:36.443Z,82411.60
2023-05-13T01:21:03.885Z,82413.57
2023-05-13T01:23:30.549Z,82416.79
2023-05-13T01:25:57.097Z,82414.17
2023-05-13T01:28:23.895Z,82413.98
2023-05-13T01:30:52.169Z,82415.25
2023-05-13T01:33:18.667Z,82407.45
2023-05-13T01:35:46.222Z,82408.38
2023-05-13T01:38:14.342Z,82419.95
2023-05-13T01:40:41.972Z,82424.65
2023-05-13T01:43:08.718Z,82417.54
2023-05-13T01:45:35.818Z,82422.29
2023-05-13T01:48:02.335Z,82414.48
2023-05-13T01:50:37.082Z,82422.21
2023-05-13T01:53:04.896Z,82425.08
2023-05-13T01:55:31.445Z,82423.09
2023-05-13T01:57:58.420Z,82420.73
2023-05-13T02:00:24.896Z,82415.17
2023-05-13T02:02:51.812Z,82419.33
2023-05-13T02:05:18.548Z,82422.83
2023-05-13T02:07:45.320Z,82424.10
2023-05-13T02:10:12.058Z,82425.79
2023-05-13T02:12:38.620Z,82419.69
2023-05-13T02:15:06.085Z,82424.70
2023-05-13T02:17:32.775Z,82423.02
2023-05-13T02:19:59.412Z,82422.37
2023-05-13T02:22:26.106Z,82417.83
2023-05-13T02:24:52.627Z,82421.42
2023-05-13T02:27:20.806Z,82423.79
2023-05-13T02:29:47.566Z,82422.65
2023-05-13T02:32:14.196Z,82422.45
2023-05-13T02:34:40.959Z,82419.38
2023-05-13T02:37:07.481Z,82420.23
2023-05-13T02:39:36.139Z,82415.52
2023-05-13T02:42:03.353Z,82409.12
2023-05-13T02:44:31.098Z,82409.98
2023-05-13T02:46:57.642Z,82411.89
2023-05-13T02:49:24.202Z,82417.86
2023-05-13T02:51:50.908Z,82417.65
2023-05-13T02:54:19.172Z,82420.88
2023-05-13T02:56:45.761Z,82413.73
2023-05-13T02:59:12.398Z,82412.98
2023-05-13T03:01:38.968Z,82423.54
2023-05-13T03:04:05.540Z,82412.56
2023-05-13T03:06:32.173Z,82422.17
2023-05-13T03:08:58.693Z,82419.48
2023-05-13T03:11:26.858Z,82420.35
2023-05-13T03:13:53.308Z,82422.13
2023-05-13T03:16:21.432Z,82421.71
2023-05-13T03:18:48.066Z,82421.18
2023-05-13T03:21:15.111Z,82423.42
2023-05-13T03:23:42.264Z,82429.77
2023-05-13T03:26:08.851Z,82417.93
2023-05-13T03:28:35.676Z,82430.77
2023-05-13T03:31:02.220Z,82428.85
2023-05-13T03:33:30.123Z,82431.42
2023-05-13T03:35:57.010Z,82436.52
2023-05-13T03:38:26.800Z,82437.02
2023-05-13T03:40:53.738Z,82435.09
2023-05-13T03:43:20.224Z,82429.29
2023-05-13T03:45:51.723Z,82435.37
2023-05-13T03:48:19.324Z,82436.55
2023-05-13T03:50:45.875Z,82440.95
2023-05-13T03:53:12.994Z,82438.27
2023-05-13T03:55:40.022Z,82440.19
2023-05-13T03:58:14.508Z,82433.63
2023-05-13T04:00:41.401Z,82438.75
2023-05-13T04:03:07.954Z,82439.52
2023-05-13T04:13:13.267Z,82449.98
2023-05-13T04:15:39.108Z,82454.59
2023-05-13T04:18:05.676Z,82454.34
2023-05-13T04:20:31.556Z,82455.23
2023-05-13T04:22:57.572Z,82458.21
2023-05-13T04:25:23.436Z,82457.52
2023-05-13T04:27:49.342Z,82460.20
2023-05-13T04:30:22.878Z,82460.76
2023-05-13T04:32:49.205Z,82460.99
2023-05-13T04:35:15.268Z,82466.66
2023-05-13T04:37:44.296Z,82469.63
2023-05-13T04:40:13.050Z,82469.11
2023-05-13T04:42:39.002Z,82469.93
2023-05-13T04:45:05.573Z,82464.83
2023-05-13T04:47:34.438Z,82467.73
2023-05-13T04:50:00.762Z,82473.31
2023-05-13T04:52:27.056Z,82470.50
2023-05-13T04:54:52.910Z,82476.95
2023-05-13T04:57:18.733Z,82480.86
2023-05-13T04:59:45.377Z,82483.07
2023-05-13T05:02:11.483Z,82484.26
2023-05-13T05:04:37.567Z,82482.73
2023-05-13T05:07:08.449Z,82482.49
2023-05-13T05:09:34.444Z,82481.42
2023-05-13T05:12:00.459Z,82487.98
2023-05-13T05:21:53.361Z,82485.86
2023-05-13T05:24:20.624Z,82479.14
2023-05-13T05:26:48.037Z,82488.53
2023-05-13T05:29:14.820Z,82488.63
2023-05-13T05:38:58.806Z,82491.57
2023-05-13T05:41:31.414Z,82478.45
2023-05-13T05:43:58.217Z,82482.83
2023-05-13T05:46:25.098Z,82491.23
2023-05-13T05:48:52.021Z,82496.48
2023-05-13T05:51:19.934Z,82491.92
2023-05-13T05:53:46.955Z,82492.05
2023-05-13T05:56:15.634Z,82491.68
2023-05-13T05:58:44.272Z,82493.73
2023-05-13T06:01:11.401Z,82495.31
2023-05-13T06:03:38.100Z,82498.02
2023-05-13T06:06:05.352Z,82494.49
2023-05-13T06:08:33.208Z,82498.03
2023-05-13T06:11:00.114Z,82499.95
2023-05-13T06:13:26.971Z,82502.55
2023-05-13T06:15:54.907Z,82496.31
2023-05-13T06:18:21.591Z,82505.25
2023-05-13T06:20:48.153Z,82499.73
2023-05-13T06:23:15.096Z,82504.73
2023-05-13T06:25:42.016Z,82505.34
2023-05-13T06:28:10.598Z,82506.81
2023-05-13T06:30:38.096Z,82507.83
2023-05-13T06:33:05.125Z,82505.48
2023-05-13T06:35:31.775Z,82512.48
2023-05-13T06:37:59.930Z,82513.82
2023-05-13T06:40:27.045Z,82512.40
2023-05-13T06:42:54.502Z,82515.48
2023-05-13T06:45:27.873Z,82516.05
2023-05-13T06:47:54.907Z,82513.73
2023-05-13T06:50:21.591Z,82516.87
2023-05-13T06:52:48.452Z,82517.87
2023-05-13T06:55:16.666Z,82515.27
2023-05-13T06:57:46.847Z,82514.90
2023-05-13T07:00:14.701Z,82512.58
2023-05-13T07:02:41.859Z,82515.70
2023-05-13T07:05:11.386Z,82515.44
2023-05-13T07:07:38.244Z,82514.94
2023-05-13T07:10:05.119Z,82511.08
2023-05-13T07:12:31.673Z,82513.79
2023-05-13T07:14:58.241Z,82513.70
2023-05-13T07:17:24.875Z,82514.95
2023-05-13T07:19:51.619Z,82507.53
2023-05-13T07:22:18.433Z,82515.41
2023-05-13T07:24:44.970Z,82513.91
2023-05-13T07:27:11.443Z,82521.07
2023-05-13T07:29:37.992Z,82513.09
2023-05-13T07:32:05.604Z,82520.29
2023-05-13T07:34:32.688Z,82517.83
2023-05-13T07:36:59.259Z,82514.92
2023-05-13T07:39:26.783Z,82516.98
2023-05-13T07:41:53.595Z,82517.95
2023-05-13T07:44:20.064Z,82514.27
2023-05-13T07:46:46.600Z,82514.31
2023-05-13T07:49:13.101Z,82514.84
2023-05-13T07:51:39.604Z,82518.67
2023-05-13T07:54:06.052Z,82514.46
2023-05-13T07:56:32.545Z,82510.95
2023-05-13T07:58:59.078Z,82512.11
2023-05-13T08:01:25.770Z,82509.83
2023-05-13T08:03:52.305Z,82514.59
2023-05-13T08:06:19.673Z,82512.64
2023-05-13T08:08:46.225Z,82512.95
2023-05-13T08:11:13.568Z,82510.42
2023-05-13T08:13:40.123Z,82513.23
2023-05-13T08:16:09.830Z,82513.39
2023-05-13T08:18:36.781Z,82509.63
2023-05-13T08:21:03.533Z,82508.05
2023-05-13T08:23:43.556Z,82507.57
2023-05-13T08:26:11.733Z,82505.02
2023-05-13T08:28:38.251Z,82498.30
2023-05-13T08:31:04.822Z,82506.30
2023-05-13T08:33:31.671Z,82506.19
2023-05-13T08:35:59.435Z,82506.13
2023-05-13T08:38:26.022Z,82508.08
2023-05-13T08:40:53.025Z,82507.42
2023-05-13T08:43:19.588Z,82505.92
2023-05-13T08:45:47.085Z,82508.89
2023-05-13T08:48:16.553Z,82512.30
2023-05-13T08:50:43.110Z,82512.56
2023-05-13T08:53:11.898Z,82512.75
2023-05-13T08:55:39.696Z,82514.73
2023-05-13T08:58:06.702Z,82515.72
2023-05-13T09:00:36.239Z,82516.88
2023-05-13T09:03:02.844Z,82514.64
2023-05-13T09:05:29.499Z,82517.42
2023-05-13T09:07:56.525Z,82520.87
2023-05-13T09:10:22.989Z,82520.27
2023-05-13T09:12:53.769Z,82521.47
2023-05-13T09:15:21.610Z,82522.07
2023-05-13T09:17:56.320Z,82519.86
2023-05-13T09:20:25.304Z,82517.96
2023-05-13T09:23:03.405Z,82518.30
2023-05-13T09:25:30.539Z,82517.16
2023-05-13T09:28:01.599Z,82520.39
2023-05-13T09:30:30.030Z,82520.95
2023-05-13T09:33:13.610Z,82523.19
2023-05-13T09:35:44.830Z,82522.94
2023-05-13T09:38:18.882Z,82520.09
2023-05-13T09:40:52.152Z,82520.05
2023-05-13T09:43:22.314Z,82518.05
2023-05-13T09:45:55.636Z,82522.05
2023-05-13T09:48:26.420Z,82518.61
2023-05-13T09:50:53.681Z,82518.19
2023-05-13T09:53:23.098Z,82518.59
2023-05-13T09:55:50.989Z,82515.27
2023-05-13T09:58:17.580Z,82515.73
2023-05-13T10:03:10.795Z,82511.60
2023-05-13T10:05:38.592Z,82511.51
2023-05-13T10:08:05.194Z,82513.40
2023-05-13T10:10:33.224Z,82517.23
2023-05-13T10:12:59.847Z,82516.71
2023-05-13T10:15:26.630Z,82519.40
2023-05-13T10:17:53.258Z,82519.72
2023-05-13T10:20:20.146Z,82518.75
2023-05-13T10:22:46.921Z,82516.75
2023-05-13T10:25:13.393Z,82519.74
2023-05-13T10:27:39.831Z,82519.47
2023-05-13T10:30:10.203Z,82520.42
2023-05-13T10:32:38.237Z,82524.32
2023-05-13T10:35:12.617Z,82524.06
2023-05-13T10:37:50.191Z,82520.41
2023-05-13T10:40:53.836Z,82521.66
2023-05-13T10:43:25.043Z,82515.92
2023-05-13T10:45:52.823Z,82515.29
2023-05-13T10:48:19.608Z,82516.20
2023-05-13T10:50:53.552Z,82516.52
2023-05-13T10:53:26.066Z,82515.73
2023-05-13T10:55:54.244Z,82514.85
2023-05-13T10:58:22.528Z,82517.13
2023-05-13T11:00:50.824Z,82514.61
2023-05-13T11:03:20.797Z,82514.95
2023-05-13T11:05:58.644Z,82517.02
2023-05-13T11:08:42.025Z,82514.82
2023-05-13T11:11:20.673Z,82518.34
2023-05-13T11:13:49.936Z,82516.50
2023-05-13T11:16:16.576Z,82511.16
2023-05-13T11:18:43.212Z,82512.25
2023-05-13T11:21:09.746Z,82514.14
2023-05-13T11:23:58.490Z,82516.05
2023-05-13T11:26:24.963Z,82517.48
2023-05-13T11:28:55.654Z,82519.83
2023-05-13T11:31:22.782Z,82521.91
2023-05-13T11:34:13.148Z,82521.92
2023-05-13T11:36:42.269Z,82526.58
2023-05-13T11:39:19.321Z,82522.37
2023-05-13T11:41:46.841Z,82515.26
2023-05-13T11:44:21.901Z,82519.12
2023-05-13T11:46:55.616Z,82515.65
2023-05-13T11:49:40.914Z,82522.44
2023-05-13T11:52:11.501Z,82530.25
2023-05-13T11:54:46.360Z,82522.33
2023-05-13T11:57:19.140Z,82524.69
2023-05-13T12:00:01.327Z,82519.78
2023-05-13T12:02:31.788Z,82522.39
2023-05-13T12:05:04.334Z,82527.02
2023-05-13T12:07:31.031Z,82534.75
2023-05-13T12:09:59.460Z,82530.64
2023-05-13T12:12:26.911Z,82534.04
2023-05-13T12:14:54.228Z,82530.35
2023-05-13T12:17:21.101Z,82527.33
2023-05-13T12:20:06.543Z,82536.99
2023-05-13T12:22:36.792Z,82537.82
2023-05-13T12:25:31.427Z,82529.79
2023-05-13T12:28:18.935Z,82531.95
2023-05-13T12:30:56.768Z,82533.20
2023-05-13T12:33:27.476Z,82538.77
2023-05-13T12:35:55.267Z,82534.70
2023-05-13T12:38:24.145Z,82532.83
2023-05-13T12:40:50.846Z,82535.25
2023-05-13T12:43:18.729Z,82537.02
2023-05-13T12:45:45.883Z,82539.67
2023-05-13T12:48:12.558Z,82535.84
2023-05-13T12:50:38.980Z,82535.69
2023-05-13T12:53:06.159Z,82539.34
2023-05-13T12:55:32.892Z,82535.42
2023-05-13T12:58:00.491Z,82534.33
2023-05-13T13:00:27.341Z,82533.64
2023-05-13T13:02:54.232Z,82531.73
2023-05-13T13:05:21.670Z,82537.79
2023-05-13T13:07:48.462Z,82539.87
2023-05-13T13:10:15.004Z,82540.58
2023-05-13T13:12:41.676Z,82534.39
2023-05-13T13:15:08.917Z,82532.52
2023-05-13T13:17:35.436Z,82536.41
2023-05-13T13:20:02.417Z,82532.65
2023-05-13T13:22:29.058Z,82529.06
2023-05-13T13:24:55.558Z,82528.02
2023-05-13T13:27:22.165Z,82528.42
2023-05-13T13:29:48.732Z,82527.20
2023-05-13T13:32:15.381Z,82527.61
2023-05-13T13:34:41.966Z,82523.12
2023-05-13T13:37:08.451Z,82519.36
2023-05-13T13:39:34.984Z,82521.54
2023-05-13T13:42:04.711Z,82517.40
2023-05-13T13:44:31.817Z,82517.90
2023-05-13T13:46:58.949Z,82524.71
2023-05-13T13:49:25.621Z,82528.92
2023-05-13T13:51:53.023Z,82525.55
2023-05-13T13:54:19.895Z,82533.71
2023-05-13T13:56:46.442Z,82530.06
2023-05-13T13:59:13.011Z,82523.40
2023-05-13T14:01:40.292Z,82525.98
2023-05-13T14:04:10.754Z,82524.70
2023-05-13T14:06:37.624Z,82522.77
2023-05-13T14:09:05.008Z,82521.70
2023-05-13T14:11:32.047Z,82523.77
2023-05-13T14:13:59.234Z,82516.44
2023-05-13T14:16:25.834Z,82517.73
2023-05-13T14:18:52.486Z,82512.86
2023-05-13T14:21:19.031Z,82512.80
2023-05-13T14:23:45.834Z,82511.83
2023-05-13T14:26:15.415Z,82513.48
2023-05-13T14:28:45.187Z,82512.42
2023-05-13T14:31:11.783Z,82515.21
2023-05-13T14:33:41.932Z,82517.36
2023-05-13T14:36:11.125Z,82521.77
2023-05-13T14:38:38.633Z,82527.73
2023-05-13T14:41:05.582Z,82538.52
2023-05-13T14:43:32.148Z,82542.21
2023-05-13T14:45:58.839Z,82539.98
2023-05-13T14:48:25.418Z,82534.80
2023-05-13T14:50:52.088Z,82542.73
2023-05-13T14:53:18.631Z,82549.20
2023-05-13T14:55:45.519Z,82551.98
2023-05-13T14:58:12.867Z,82560.84
2023-05-13T15:00:39.820Z,82563.75
2023-05-13T15:03:06.677Z,82565.40
2023-05-13T15:05:33.401Z,82578.60
2023-05-13T15:08:00.161Z,82579.30
2023-05-13T15:10:26.814Z,82577.55
2023-05-13T15:12:53.384Z,82577.19
2023-05-13T15:15:20.036Z,82581.97
2023-05-13T15:17:46.716Z,82582.87
2023-05-13T15:20:13.307Z,82586.55
2023-05-13T15:22:39.907Z,82590.52
2023-05-13T15:25:07.290Z,82594.41
2023-05-13T15:27:34.010Z,82595.00
2023-05-13T15:30:00.630Z,82590.38
2023-05-13T15:32:27.528Z,82584.88
2023-05-13T15:34:54.243Z,82585.11
2023-05-13T15:37:21.720Z,82582.98
2023-05-13T15:39:49.002Z,82580.61
2023-05-13T15:42:15.873Z,82579.61
2023-05-13T15:44:42.673Z,82584.05
2023-05-13T15:47:09.477Z,82588.42
2023-05-13T15:49:36.465Z,82586.48
2023-05-13T15:52:06.213Z,82582.64
2023-05-13T15:54:34.005Z,82589.16
2023-05-13T15:57:03.288Z,82589.61
2023-05-13T15:59:32.501Z,82589.69
2023-05-13T16:02:02.396Z,82593.63
2023-05-13T16:04:31.545Z,82591.20
2023-05-13T16:07:00.139Z,82593.20
2023-05-13T16:09:30.255Z,82589.69
2023-05-13T16:11:59.301Z,82592.41
2023-05-13T16:14:29.401Z,82590.55
2023-05-13T16:16:59.954Z,82593.55
2023-05-13T16:19:28.967Z,82591.08
2023-05-13T16:21:57.219Z,82587.21
2023-05-13T16:24:26.401Z,82592.52
2023-05-13T16:26:56.155Z,82593.59
2023-05-13T16:29:26.214Z,82596.34
2023-05-13T16:31:55.617Z,82594.27
2023-05-13T16:34:26.337Z,82594.05
2023-05-13T16:36:57.264Z,82593.86
2023-05-13T16:39:27.711Z,82593.53
2023-05-13T16:41:55.698Z,82592.95
2023-05-13T16:44:24.321Z,82593.65
2023-05-13T16:46:53.705Z,82593.60
2023-05-13T16:49:23.461Z,82596.20
2023-05-13T16:51:52.389Z,82594.58
2023-05-13T16:54:21.968Z,82594.16
2023-05-13T17:04:02.820Z,82591.25
2023-05-13T17:06:29.304Z,82585.38
2023-05-13T17:08:55.899Z,82586.17
2023-05-13T17:11:22.563Z,82586.01
2023-05-13T17:13:49.147Z,82583.78
2023-05-13T17:16:15.867Z,82586.17
2023-05-13T17:18:42.484Z,82583.61
2023-05-13T17:21:09.055Z,82588.36
2023-05-13T17:23:35.925Z,82591.42
2023-05-13T17:26:02.486Z,82584.16
2023-05-13T17:28:29.085Z,82584.20
2023-05-13T17:30:55.925Z,82580.13
2023-05-13T17:33:22.452Z,82579.18
2023-05-13T17:35:49.108Z,82578.95
2023-05-13T17:38:15.626Z,82581.59
2023-05-13T17:40:42.156Z,82583.49
2023-05-13T17:43:08.710Z,82581.91
2023-05-13T17:45:38.309Z,82579.38
2023-05-13T17:48:05.441Z,82580.16
2023-05-13T17:50:32.253Z,82581.92
2023-05-13T17:52:59.985Z,82583.42
2023-05-13T17:55:26.637Z,82582.05
2023-05-13T17:57:55.539Z,82578.79
2023-05-13T18:00:23.952Z,82583.23
2023-05-13T18:02:51.010Z,82589.86
2023-05-13T18:05:17.790Z,82590.73
2023-05-13T18:07:44.525Z,82589.24
2023-05-13T18:10:11.346Z,82588.57
2023-05-13T18:12:37.913Z,82575.39
2023-05-13T18:15:05.260Z,82584.51
2023-05-13T18:17:32.057Z,82588.85
2023-05-13T18:19:58.716Z,82589.30
2023-05-13T18:22:25.450Z,82587.27
2023-05-13T18:24:52.274Z,82587.33
2023-05-13T18:27:18.847Z,82584.84
2023-05-13T18:29:46.375Z,82585.50
2023-05-13T18:32:12.951Z,82588.52
2023-05-13T18:34:39.577Z,82589.39
2023-05-13T18:37:06.545Z,82591.02
2023-05-13T18:39:33.171Z,82590.99
2023-05-13T18:42:00.169Z,82587.80
2023-05-13T18:44:26.745Z,82586.36
2023-05-13T18:46:53.350Z,82587.10
2023-05-13T18:49:19.944Z,82582.22
2023-05-13T18:51:46.702Z,82587.41
2023-05-13T18:54:13.340Z,82586.89
2023-05-13T18:56:40.502Z,82595.02
2023-05-13T18:59:07.116Z,82595.73
2023-05-13T19:01:33.674Z,82590.69
2023-05-13T19:04:00.509Z,82590.18
2023-05-13T19:06:27.161Z,82590.73
2023-05-13T19:08:53.700Z,82595.04
2023-05-13T19:11:20.186Z,82590.70
2023-05-13T19:13:47.787Z,82590.80
2023-05-13T19:16:15.563Z,82594.73
2023-05-13T19:18:42.659Z,82592.36
2023-05-13T19:21:09.729Z,82594.48
2023-05-13T19:23:37.652Z,82599.65
2023-05-13T19:26:04.318Z,82601.21
2023-05-13T19:28:31.659Z,82598.73
2023-05-13T19:30:58.276Z,82599.92
2023-05-13T19:33:24.797Z,82606.27
2023-05-13T19:35:51.259Z,82601.65
2023-05-13T19:38:17.748Z,82606.42
2023-05-13T19:40:45.371Z,82609.23
2023-05-13T19:43:11.895Z,82609.02
2023-05-13T19:45:38.448Z,82605.52
2023-05-13T19:48:05.190Z,82608.30
2023-05-13T19:50:31.745Z,82609.81
2023-05-13T19:52:58.386Z,82609.84
2023-05-13T19:55:25.080Z,82610.16
2023-05-13T19:57:51.944Z,82605.92
2023-05-13T20:00:18.739Z,82605.85
2023-05-13T20:02:45.378Z,82603.32
2023-05-13T20:05:12.035Z,82597.70
2023-05-13T20:07:38.487Z,82600.29
2023-05-13T20:13:22.417Z,82598.20
2023-05-13T20:15:49.051Z,82596.54
2023-05-13T20:18:16.298Z,82595.35
2023-05-13T20:20:43.163Z,82598.96
2023-05-13T20:23:09.702Z,82588.26
2023-05-13T20:25:36.445Z,82597.58
2023-05-13T20:28:03.292Z,82598.62
2023-05-13T20:30:29.925Z,82596.75
2023-05-13T20:32:56.593Z,82588.23
2023-05-13T20:35:23.378Z,82590.64
2023-05-13T20:37:49.925Z,82601.25
2023-05-13T20:40:16.721Z,82600.08
2023-05-13T20:42:43.517Z,82590.75
2023-05-13T20:45:10.731Z,82583.35
2023-05-13T20:47:37.478Z,82592.07
2023-05-13T20:50:04.450Z,82585.88
2023-05-13T20:52:30.905Z,82589.45
2023-05-13T20:54:57.479Z,82584.53
2023-05-13T20:57:25.705Z,82586.61
2023-05-13T20:59:52.402Z,82586.50
2023-05-13T21:02:19.145Z,82584.52
2023-05-13T21:04:48.514Z,82573.70
2023-05-13T21:07:15.191Z,82572.48
2023-05-13T21:09:44.275Z,82583.33
2023-05-13T21:12:11.105Z,82579.59
2023-05-13T21:14:37.631Z,82571.61
2023-05-13T21:17:04.296Z,82583.13
2023-05-13T21:19:30.969Z,82580.70
2023-05-13T21:21:58.536Z,82573.95
2023-05-13T21:24:25.286Z,82582.03
2023-05-13T21:26:52.266Z,82570.59
2023-05-13T21:29:19.118Z,82577.73
2023-05-13T21:31:47.295Z,82573.84
2023-05-13T21:34:13.925Z,82571.35
2023-05-13T21:36:40.535Z,82562.02
2023-05-13T21:39:07.822Z,82567.61
2023-05-13T21:41:35.507Z,82566.52
2023-05-13T21:44:02.008Z,82567.52
2023-05-13T21:46:28.547Z,82563.57
2023-05-13T21:48:55.178Z,82561.23
2023-05-13T21:51:22.477Z,82561.48
2023-05-13T21:53:49.146Z,82555.17
2023-05-13T21:56:15.797Z,82556.29
2023-05-13T21:58:42.453Z,82559.63
2023-05-13T22:01:09.169Z,82558.52
2023-05-13T22:03:35.906Z,82558.55
2023-05-13T22:06:03.238Z,82558.10
2023-05-13T22:08:30.312Z,82559.41
2023-05-13T22:10:56.974Z,82556.52
2023-05-13T22:13:25.663Z,82552.54
2023-05-13T22:15:52.343Z,82551.81
2023-05-13T22:18:19.379Z,82555.83
2023-05-13T22:20:46.035Z,82557.82
2023-05-13T22:23:12.545Z,82550.17
2023-05-13T22:25:39.037Z,82551.66
2023-05-13T22:28:06.397Z,82560.29
2023-05-13T22:30:33.022Z,82562.16
2023-05-13T22:32:59.913Z,82557.27
2023-05-13T22:35:28.879Z,82555.02
2023-05-13T22:37:55.741Z,82556.91
2023-05-13T22:40:22.367Z,82557.89
2023-05-13T22:42:49.388Z,82557.27
2023-05-13T22:45:16.072Z,82553.05
2023-05-13T22:47:42.660Z,82556.49
2023-05-13T22:50:09.826Z,82558.71
2023-05-13T22:52:36.359Z,82559.84
2023-05-13T22:55:03.246Z,82557.20
2023-05-13T22:57:29.796Z,82549.23
2023-05-13T22:59:56.321Z,82554.34
2023-05-13T23:02:23.762Z,82553.64
2023-05-13T23:04:50.674Z,82550.77
2023-05-13T23:07:17.206Z,82552.02
2023-05-13T23:09:43.946Z,82550.47
2023-05-13T23:12:10.499Z,82547.98
2023-05-13T23:14:37.012Z,82539.87
2023-05-13T23:17:03.537Z,82538.72
2023-05-13T23:19:30.123Z,82535.55
2023-05-13T23:21:56.622Z,82539.20
2023-05-13T23:24:23.211Z,82531.84
2023-05-13T23:26:49.753Z,82535.36
2023-05-13T23:29:16.740Z,82533.39
2023-05-13T23:31:43.338Z,82527.78
2023-05-13T23:34:10.120Z,82527.24
2023-05-13T23:36:36.680Z,82528.83
2023-05-13T23:39:03.338Z,82531.25
2023-05-13T23:41:30.134Z,82528.25
2023-05-13T23:43:56.627Z,82524.25
2023-05-13T23:46:23.290Z,82523.65
2023-05-13T23:48:50.465Z,82522.83
2023-05-13T23:51:17.188Z,82520.09
2023-05-13T23:53:43.786Z,82507.06
2023-05-13T23:56:10.408Z,82513.45
2023-05-13T23:58:36.852Z,82512.48
